sensor_id;sensor_type;location;lat;lon;timestamp;P1;durP1;ratioP1;P2;durP2;ratioP2
67051;SDS011;53957;47.222;18.670;2023-02-28T00:00:39;4.10;;;3.70;;
67051;SDS011;53957;47.222;18.670;2023-02-28T00:03:42;5.25;;;4.28;;
67051;SDS011;53957;47.222;18.670;2023-02-28T00:06:45;8.90;;;5.28;;
67051;SDS011;53957;47.222;18.670;2023-02-28T00:09:48;6.07;;;4.85;;
67051;SDS011;53957;47.222;18.670;2023-02-28T00:12:52;5.80;;;4.65;;
67051;SDS011;53957;47.222;18.670;2023-02-28T00:16:00;7.95;;;4.05;;
67051;SDS011;53957;47.222;18.670;2023-02-28T00:19:04;5.35;;;4.55;;
67051;SDS011;53957;47.222;18.670;2023-02-28T00:22:07;8.25;;;5.32;;
67051;SDS011;53957;47.222;18.670;2023-02-28T00:25:11;6.28;;;4.37;;
67051;SDS011;53957;47.222;18.670;2023-02-28T00:28:16;4.15;;;3.80;;
67051;SDS011;53957;47.222;18.670;2023-02-28T00:31:19;6.50;;;4.35;;
67051;SDS011;53957;47.222;18.670;2023-02-28T00:34:23;5.25;;;4.75;;
67051;SDS011;53957;47.222;18.670;2023-02-28T00:37:27;4.60;;;4.20;;
67051;SDS011;53957;47.222;18.670;2023-02-28T00:40:31;6.37;;;5.10;;
67051;SDS011;53957;47.222;18.670;2023-02-28T00:43:34;5.87;;;4.57;;
67051;SDS011;53957;47.222;18.670;2023-02-28T00:46:39;5.07;;;4.28;;
67051;SDS011;53957;47.222;18.670;2023-02-28T00:49:42;6.75;;;4.60;;
67051;SDS011;53957;47.222;18.670;2023-02-28T00:52:45;7.10;;;4.45;;
67051;SDS011;53957;47.222;18.670;2023-02-28T00:55:49;6.15;;;4.25;;
67051;SDS011;53957;47.222;18.670;2023-02-28T00:58:53;7.70;;;5.05;;
67051;SDS011;53957;47.222;18.670;2023-02-28T01:01:55;4.82;;;4.40;;
67051;SDS011;53957;47.222;18.670;2023-02-28T01:04:59;4.45;;;4.05;;
67051;SDS011;53957;47.222;18.670;2023-02-28T01:08:04;5.40;;;4.90;;
67051;SDS011;53957;47.222;18.670;2023-02-28T01:11:09;9.60;;;4.40;;
67051;SDS011;53957;47.222;18.670;2023-02-28T01:14:15;8.55;;;5.00;;
67051;SDS011;53957;47.222;18.670;2023-02-28T01:17:20;5.50;;;4.25;;
67051;SDS011;53957;47.222;18.670;2023-02-28T01:20:23;4.85;;;4.45;;
67051;SDS011;53957;47.222;18.670;2023-02-28T01:23:26;7.40;;;5.18;;
67051;SDS011;53957;47.222;18.670;2023-02-28T01:26:29;4.43;;;4.03;;
67051;SDS011;53957;47.222;18.670;2023-02-28T01:29:33;5.15;;;4.57;;
67051;SDS011;53957;47.222;18.670;2023-02-28T01:32:36;4.60;;;4.20;;
67051;SDS011;53957;47.222;18.670;2023-02-28T01:35:39;6.60;;;5.18;;
67051;SDS011;53957;47.222;18.670;2023-02-28T01:38:43;9.70;;;4.90;;
67051;SDS011;53957;47.222;18.670;2023-02-28T04:02:23;6.68;;;5.22;;
67051;SDS011;53957;47.222;18.670;2023-02-28T04:05:30;8.13;;;5.60;;
67051;SDS011;53957;47.222;18.670;2023-02-28T04:08:33;7.10;;;5.70;;
67051;SDS011;53957;47.222;18.670;2023-02-28T04:11:40;10.23;;;5.50;;
67051;SDS011;53957;47.222;18.670;2023-02-28T04:14:46;5.50;;;4.95;;
67051;SDS011;53957;47.222;18.670;2023-02-28T04:17:49;8.77;;;6.12;;
67051;SDS011;53957;47.222;18.670;2023-02-28T04:20:52;7.12;;;5.75;;
67051;SDS011;53957;47.222;18.670;2023-02-28T04:23:55;6.15;;;4.55;;
67051;SDS011;53957;47.222;18.670;2023-02-28T04:27:02;7.53;;;5.65;;
67051;SDS011;53957;47.222;18.670;2023-02-28T04:30:06;8.82;;;5.20;;
67051;SDS011;53957;47.222;18.670;2023-02-28T04:33:10;7.37;;;5.65;;
67051;SDS011;53957;47.222;18.670;2023-02-28T04:36:14;7.53;;;5.62;;
67051;SDS011;53957;47.222;18.670;2023-02-28T04:39:23;6.43;;;5.75;;
67051;SDS011;53957;47.222;18.670;2023-02-28T04:42:26;13.57;;;6.18;;
67051;SDS011;53957;47.222;18.670;2023-02-28T04:45:29;11.15;;;6.35;;
67051;SDS011;53957;47.222;18.670;2023-02-28T04:48:35;12.27;;;7.43;;
67051;SDS011;53957;47.222;18.670;2023-02-28T04:51:39;7.55;;;5.90;;
67051;SDS011;53957;47.222;18.670;2023-02-28T04:54:43;9.15;;;5.60;;
67051;SDS011;53957;47.222;18.670;2023-02-28T04:57:46;8.00;;;5.18;;
67051;SDS011;53957;47.222;18.670;2023-02-28T05:00:52;6.80;;;5.20;;
67051;SDS011;53957;47.222;18.670;2023-02-28T05:03:56;10.30;;;5.78;;
67051;SDS011;53957;47.222;18.670;2023-02-28T05:07:00;8.48;;;5.95;;
67051;SDS011;53957;47.222;18.670;2023-02-28T05:10:04;7.90;;;5.55;;
67051;SDS011;53957;47.222;18.670;2023-02-28T05:13:10;10.45;;;6.85;;
67051;SDS011;53957;47.222;18.670;2023-02-28T05:16:14;6.80;;;6.10;;
67051;SDS011;53957;47.222;18.670;2023-02-28T05:19:18;9.68;;;6.25;;
67051;SDS011;53957;47.222;18.670;2023-02-28T05:22:21;7.32;;;6.00;;
67051;SDS011;53957;47.222;18.670;2023-02-28T05:25:25;8.77;;;6.05;;
67051;SDS011;53957;47.222;18.670;2023-02-28T05:28:28;7.35;;;5.60;;
67051;SDS011;53957;47.222;18.670;2023-02-28T05:31:31;12.90;;;5.80;;
67051;SDS011;53957;47.222;18.670;2023-02-28T05:34:35;9.30;;;6.35;;
67051;SDS011;53957;47.222;18.670;2023-02-28T05:37:39;11.05;;;6.28;;
67051;SDS011;53957;47.222;18.670;2023-02-28T05:40:42;11.10;;;6.93;;
67051;SDS011;53957;47.222;18.670;2023-02-28T05:44:05;9.27;;;7.40;;
67051;SDS011;53957;47.222;18.670;2023-02-28T05:47:08;8.13;;;6.45;;
67051;SDS011;53957;47.222;18.670;2023-02-28T05:50:12;14.82;;;7.80;;
67051;SDS011;53957;47.222;18.670;2023-02-28T05:53:15;10.05;;;7.47;;
67051;SDS011;53957;47.222;18.670;2023-02-28T05:56:18;10.13;;;7.03;;
67051;SDS011;53957;47.222;18.670;2023-02-28T05:59:21;13.40;;;7.37;;
67051;SDS011;53957;47.222;18.670;2023-02-28T06:02:24;9.38;;;6.80;;
67051;SDS011;53957;47.222;18.670;2023-02-28T06:05:27;8.05;;;7.25;;
67051;SDS011;53957;47.222;18.670;2023-02-28T06:08:31;8.73;;;6.40;;
67051;SDS011;53957;47.222;18.670;2023-02-28T06:11:34;8.93;;;6.25;;
67051;SDS011;53957;47.222;18.670;2023-02-28T06:14:37;8.15;;;6.53;;
67051;SDS011;53957;47.222;18.670;2023-02-28T06:17:40;13.30;;;8.32;;
67051;SDS011;53957;47.222;18.670;2023-02-28T06:20:44;11.02;;;7.07;;
67051;SDS011;53957;47.222;18.670;2023-02-28T06:23:47;9.10;;;7.18;;
67051;SDS011;53957;47.222;18.670;2023-02-28T06:26:50;13.93;;;7.62;;
67051;SDS011;53957;47.222;18.670;2023-02-28T06:29:54;11.48;;;8.32;;
67051;SDS011;53957;47.222;18.670;2023-02-28T06:33:00;13.10;;;8.07;;
67051;SDS011;53957;47.222;18.670;2023-02-28T06:36:04;18.42;;;10.70;;
67051;SDS011;53957;47.222;18.670;2023-02-28T06:39:07;13.43;;;8.68;;
67051;SDS011;53957;47.222;18.670;2023-02-28T06:42:12;15.45;;;9.68;;
67051;SDS011;53957;47.222;18.670;2023-02-28T06:45:14;13.05;;;8.52;;
67051;SDS011;53957;47.222;18.670;2023-02-28T06:48:17;13.27;;;7.07;;
67051;SDS011;53957;47.222;18.670;2023-02-28T06:51:21;10.65;;;6.55;;
67051;SDS011;53957;47.222;18.670;2023-02-28T06:54:25;10.77;;;6.40;;
67051;SDS011;53957;47.222;18.670;2023-02-28T06:57:28;11.35;;;7.43;;
67051;SDS011;53957;47.222;18.670;2023-02-28T07:00:33;9.50;;;6.72;;
67051;SDS011;53957;47.222;18.670;2023-02-28T16:37:11;7.75;;;5.30;;
67051;SDS011;53957;47.222;18.670;2023-02-28T16:40:19;8.70;;;6.18;;
67051;SDS011;53957;47.222;18.670;2023-02-28T16:43:24;6.93;;;5.93;;
67051;SDS011;53957;47.222;18.670;2023-02-28T16:46:35;6.10;;;4.87;;
67051;SDS011;53957;47.222;18.670;2023-02-28T16:49:43;8.50;;;6.40;;
67051;SDS011;53957;47.222;18.670;2023-02-28T16:52:47;25.55;;;9.70;;
67051;SDS011;53957;47.222;18.670;2023-02-28T16:56:14;8.35;;;7.03;;
67051;SDS011;53957;47.222;18.670;2023-02-28T16:59:23;9.27;;;6.40;;
67051;SDS011;53957;47.222;18.670;2023-02-28T17:02:29;9.85;;;5.05;;
67051;SDS011;53957;47.222;18.670;2023-02-28T17:05:42;10.65;;;5.87;;
67051;SDS011;53957;47.222;18.670;2023-02-28T17:08:48;8.15;;;6.37;;
67051;SDS011;53957;47.222;18.670;2023-02-28T17:12:19;9.60;;;5.95;;
67051;SDS011;53957;47.222;18.670;2023-02-28T17:15:31;9.35;;;5.70;;
67051;SDS011;53957;47.222;18.670;2023-02-28T17:18:59;9.10;;;5.82;;
67051;SDS011;53957;47.222;18.670;2023-02-28T17:22:04;6.95;;;5.00;;
67051;SDS011;53957;47.222;18.670;2023-02-28T17:25:47;6.05;;;4.68;;
67051;SDS011;53957;47.222;18.670;2023-02-28T17:29:19;6.45;;;4.72;;
67051;SDS011;53957;47.222;18.670;2023-02-28T17:32:24;6.18;;;4.75;;
67051;SDS011;53957;47.222;18.670;2023-02-28T17:35:29;6.68;;;5.22;;
67051;SDS011;53957;47.222;18.670;2023-02-28T17:38:33;10.73;;;5.32;;
67051;SDS011;53957;47.222;18.670;2023-02-28T17:41:44;6.20;;;5.15;;
67051;SDS011;53957;47.222;18.670;2023-02-28T17:45:28;6.93;;;5.12;;
67051;SDS011;53957;47.222;18.670;2023-02-28T17:48:36;5.75;;;5.07;;
67051;SDS011;53957;47.222;18.670;2023-02-28T17:55:20;7.60;;;5.03;;
67051;SDS011;53957;47.222;18.670;2023-02-28T17:58:25;8.32;;;5.62;;
67051;SDS011;53957;47.222;18.670;2023-02-28T18:01:27;8.02;;;6.05;;
67051;SDS011;53957;47.222;18.670;2023-02-28T18:04:41;12.15;;;5.87;;
67051;SDS011;53957;47.222;18.670;2023-02-28T18:07:49;11.48;;;6.70;;
67051;SDS011;53957;47.222;18.670;2023-02-28T18:11:33;8.27;;;5.62;;
67051;SDS011;53957;47.222;18.670;2023-02-28T18:14:46;6.93;;;5.65;;
67051;SDS011;53957;47.222;18.670;2023-02-28T18:17:50;7.65;;;5.30;;
67051;SDS011;53957;47.222;18.670;2023-02-28T18:20:53;6.57;;;5.45;;
67051;SDS011;53957;47.222;18.670;2023-02-28T18:24:17;8.95;;;6.10;;
67051;SDS011;53957;47.222;18.670;2023-02-28T18:27:21;14.27;;;6.05;;
67051;SDS011;53957;47.222;18.670;2023-02-28T18:30:25;7.45;;;5.72;;
67051;SDS011;53957;47.222;18.670;2023-02-28T18:33:33;8.80;;;6.00;;
67051;SDS011;53957;47.222;18.670;2023-02-28T18:36:36;7.37;;;6.50;;
67051;SDS011;53957;47.222;18.670;2023-02-28T18:39:39;10.80;;;6.43;;
67051;SDS011;53957;47.222;18.670;2023-02-28T18:42:42;11.32;;;6.62;;
67051;SDS011;53957;47.222;18.670;2023-02-28T18:45:45;10.98;;;7.35;;
67051;SDS011;53957;47.222;18.670;2023-02-28T18:48:48;8.27;;;6.57;;
67051;SDS011;53957;47.222;18.670;2023-02-28T18:51:52;9.30;;;6.37;;
67051;SDS011;53957;47.222;18.670;2023-02-28T18:54:56;9.20;;;6.82;;
67051;SDS011;53957;47.222;18.670;2023-02-28T18:57:59;9.35;;;6.78;;
67051;SDS011;53957;47.222;18.670;2023-02-28T19:01:03;10.32;;;6.68;;
67051;SDS011;53957;47.222;18.670;2023-02-28T19:04:15;11.40;;;7.25;;
67051;SDS011;53957;47.222;18.670;2023-02-28T19:07:18;11.25;;;7.78;;
67051;SDS011;53957;47.222;18.670;2023-02-28T19:10:30;11.65;;;6.35;;
67051;SDS011;53957;47.222;18.670;2023-02-28T19:13:35;11.20;;;6.93;;
67051;SDS011;53957;47.222;18.670;2023-02-28T19:16:38;10.40;;;7.37;;
67051;SDS011;53957;47.222;18.670;2023-02-28T19:19:42;11.35;;;7.07;;
67051;SDS011;53957;47.222;18.670;2023-02-28T19:23:10;9.85;;;7.00;;
67051;SDS011;53957;47.222;18.670;2023-02-28T19:26:24;11.25;;;7.05;;
67051;SDS011;53957;47.222;18.670;2023-02-28T19:29:28;10.38;;;7.82;;
67051;SDS011;53957;47.222;18.670;2023-02-28T19:32:31;9.18;;;6.65;;
67051;SDS011;53957;47.222;18.670;2023-02-28T19:35:34;11.85;;;7.03;;
67051;SDS011;53957;47.222;18.670;2023-02-28T19:38:57;11.25;;;7.47;;
67051;SDS011;53957;47.222;18.670;2023-02-28T19:42:01;11.12;;;7.43;;
67051;SDS011;53957;47.222;18.670;2023-02-28T19:45:05;13.95;;;7.72;;
67051;SDS011;53957;47.222;18.670;2023-02-28T19:48:11;23.92;;;13.70;;
67051;SDS011;53957;47.222;18.670;2023-02-28T19:51:15;41.83;;;21.45;;
67051;SDS011;53957;47.222;18.670;2023-02-28T19:54:38;42.75;;;23.12;;
67051;SDS011;53957;47.222;18.670;2023-02-28T19:57:43;30.10;;;15.57;;
67051;SDS011;53957;47.222;18.670;2023-02-28T20:00:46;30.70;;;17.62;;
67051;SDS011;53957;47.222;18.670;2023-02-28T20:04:09;28.65;;;17.17;;
67051;SDS011;53957;47.222;18.670;2023-02-28T20:07:32;37.95;;;19.60;;
67051;SDS011;53957;47.222;18.670;2023-02-28T20:10:36;16.87;;;11.35;;
67051;SDS011;53957;47.222;18.670;2023-02-28T20:13:40;11.55;;;8.20;;
67051;SDS011;53957;47.222;18.670;2023-02-28T21:27:01;49.67;;;19.23;;
67051;SDS011;53957;47.222;18.670;2023-02-28T21:30:09;15.75;;;9.07;;
67051;SDS011;53957;47.222;18.670;2023-02-28T21:33:53;12.48;;;8.65;;
67051;SDS011;53957;47.222;18.670;2023-02-28T21:37:06;16.10;;;9.48;;
67051;SDS011;53957;47.222;18.670;2023-02-28T21:40:14;30.92;;;15.20;;
67051;SDS011;53957;47.222;18.670;2023-02-28T21:43:45;38.00;;;15.27;;
67051;SDS011;53957;47.222;18.670;2023-02-28T21:47:12;24.98;;;12.20;;
67051;SDS011;53957;47.222;18.670;2023-02-28T21:50:16;21.65;;;11.52;;
67051;SDS011;53957;47.222;18.670;2023-02-28T21:53:21;23.98;;;11.25;;
67051;SDS011;53957;47.222;18.670;2023-02-28T21:56:24;20.50;;;10.52;;
67051;SDS011;53957;47.222;18.670;2023-02-28T21:59:31;20.48;;;9.93;;
67051;SDS011;53957;47.222;18.670;2023-02-28T22:02:35;17.83;;;10.88;;
67051;SDS011;53957;47.222;18.670;2023-02-28T22:05:41;13.00;;;8.77;;
67051;SDS011;53957;47.222;18.670;2023-02-28T22:08:45;15.18;;;9.48;;
67051;SDS011;53957;47.222;18.670;2023-02-28T22:11:50;12.23;;;8.50;;
67051;SDS011;53957;47.222;18.670;2023-02-28T22:14:54;13.68;;;9.32;;
67051;SDS011;53957;47.222;18.670;2023-02-28T22:17:57;15.48;;;9.70;;
67051;SDS011;53957;47.222;18.670;2023-02-28T22:21:00;13.02;;;8.95;;
67051;SDS011;53957;47.222;18.670;2023-02-28T22:24:04;19.05;;;9.75;;
67051;SDS011;53957;47.222;18.670;2023-02-28T22:27:07;13.32;;;8.48;;
67051;SDS011;53957;47.222;18.670;2023-02-28T22:30:31;13.00;;;9.73;;
67051;SDS011;53957;47.222;18.670;2023-02-28T22:33:33;16.12;;;9.27;;
67051;SDS011;53957;47.222;18.670;2023-02-28T22:36:38;15.68;;;9.05;;
67051;SDS011;53957;47.222;18.670;2023-02-28T22:40:02;11.63;;;8.38;;
67051;SDS011;53957;47.222;18.670;2023-02-28T22:43:07;11.05;;;8.02;;
67051;SDS011;53957;47.222;18.670;2023-02-28T22:46:10;11.77;;;7.53;;
67051;SDS011;53957;47.222;18.670;2023-02-28T22:49:36;14.57;;;8.50;;
67051;SDS011;53957;47.222;18.670;2023-02-28T22:52:55;11.75;;;7.82;;
67051;SDS011;53957;47.222;18.670;2023-02-28T22:56:05;11.95;;;8.45;;
67051;SDS011;53957;47.222;18.670;2023-02-28T22:59:17;13.10;;;7.60;;
67051;SDS011;53957;47.222;18.670;2023-02-28T23:02:20;15.18;;;8.20;;
67051;SDS011;53957;47.222;18.670;2023-02-28T23:05:25;11.35;;;7.85;;
67051;SDS011;53957;47.222;18.670;2023-02-28T23:08:30;13.73;;;7.40;;
67051;SDS011;53957;47.222;18.670;2023-02-28T23:11:53;9.85;;;7.40;;
67051;SDS011;53957;47.222;18.670;2023-02-28T23:15:16;10.32;;;6.95;;
67051;SDS011;53957;47.222;18.670;2023-02-28T23:18:20;9.00;;;6.37;;
67051;SDS011;53957;47.222;18.670;2023-02-28T23:21:24;9.75;;;7.55;;
67051;SDS011;53957;47.222;18.670;2023-02-28T23:24:48;9.90;;;6.35;;
67051;SDS011;53957;47.222;18.670;2023-02-28T23:28:08;9.70;;;6.72;;
67051;SDS011;53957;47.222;18.670;2023-02-28T23:31:16;10.55;;;6.72;;
67051;SDS011;53957;47.222;18.670;2023-02-28T23:34:47;13.95;;;7.70;;
67051;SDS011;53957;47.222;18.670;2023-02-28T23:37:50;9.55;;;6.60;;
67051;SDS011;53957;47.222;18.670;2023-02-28T23:41:15;14.07;;;7.65;;
67051;SDS011;53957;47.222;18.670;2023-02-28T23:44:39;11.80;;;8.00;;
67051;SDS011;53957;47.222;18.670;2023-02-28T23:48:02;15.00;;;8.45;;
67051;SDS011;53957;47.222;18.670;2023-02-28T23:51:07;11.27;;;7.32;;
67051;SDS011;53957;47.222;18.670;2023-02-28T23:54:12;13.57;;;8.32;;
67051;SDS011;53957;47.222;18.670;2023-02-28T23:57:17;11.55;;;7.28;;
